Time;durP1;ratioP1;P1;durP2;ratioP2;P2;SDS_P1;SDS_P2;PMS_P1;PMS_P2;Temp;Humidity;BMP_temperature;BMP_pressure;BME280_temperature;BME280_humidity;BME280_pressure;Samples;Min_cycle;Max_cycle;Signal;HPM_P1;HPM_P2
2023/12/19 00:01:33;;;;;;;5.90;1.30;;;;;;;6.04;100.00;99812.14;109188;1257;58115;-66
2023/12/19 00:04:20;;;;;;;6.20;1.40;;;;;;;6.01;100.00;99809.31;109081;1257;73122;-61
2023/12/19 00:07:08;;;;;;;4.90;1.40;;;;;;;6.00;100.00;99804.10;109088;1257;67873;-62
2023/12/19 00:09:56;;;;;;;5.60;1.50;;;;;;;5.99;100.00;99797.48;109157;1257;72567;-62
2023/12/19 00:12:44;;;;;;;6.00;1.80;;;;;;;5.96;100.00;99783.92;109052;1258;58332;-64
2023/12/19 00:15:32;;;;;;;6.50;1.70;;;;;;;5.98;100.00;99781.88;109190;1257;59233;-64
2023/12/19 00:18:21;;;;;;;5.20;1.50;;;;;;;5.97;100.00;99775.90;109062;1257;70809;-66
2023/12/19 00:21:09;;;;;;;4.90;1.50;;;;;;;5.95;100.00;99774.61;109030;1257;66898;-63
2023/12/19 00:23:57;;;;;;;4.30;1.20;;;;;;;5.93;100.00;99762.22;109135;1257;70523;-62
2023/12/19 00:26:44;;;;;;;5.10;1.50;;;;;;;5.89;100.00;99753.17;109061;1257;59592;-63
2023/12/19 00:29:32;;;;;;;4.50;1.30;;;;;;;5.87;100.00;99749.77;109076;1259;59246;-64
2023/12/19 00:32:19;;;;;;;4.70;1.40;;;;;;;5.87;100.00;99751.01;109163;1257;73079;-61
2023/12/19 00:35:08;;;;;;;5.10;1.40;;;;;;;5.86;100.00;99748.60;109153;1257;68352;-64
2023/12/19 00:37:56;;;;;;;6.10;1.60;;;;;;;5.87;100.00;99754.01;109156;1257;71576;-63
2023/12/19 00:40:44;;;;;;;5.20;1.40;;;;;;;5.86;100.00;99756.83;109133;1257;60703;-65
2023/12/19 00:43:32;;;;;;;5.40;1.40;;;;;;;5.87;100.00;99755.90;109041;1259;59932;-63
2023/12/19 00:46:19;;;;;;;5.00;1.40;;;;;;;5.88;100.00;99750.05;109098;1259;73157;-63
2023/12/19 00:49:07;;;;;;;4.90;1.20;;;;;;;5.86;100.00;99749.84;109109;1257;67869;-62
2023/12/19 00:51:55;;;;;;;4.80;1.40;;;;;;;5.86;100.00;99745.08;109109;1259;73616;-64
2023/12/19 00:54:43;;;;;;;4.60;1.30;;;;;;;5.84;100.00;99745.16;109066;1259;59614;-62
2023/12/19 00:57:31;;;;;;;4.40;1.10;;;;;;;5.84;100.00;99756.43;109033;1259;60333;-62
2023/12/19 01:00:19;;;;;;;4.00;1.20;;;;;;;5.86;100.00;99744.19;109014;1258;73772;-62
2023/12/19 01:03:07;;;;;;;5.10;1.30;;;;;;;5.86;100.00;99735.22;109143;1259;67848;-62
2023/12/19 01:05:55;;;;;;;4.10;1.10;;;;;;;5.85;100.00;99727.70;109052;1259;73626;-64
2023/12/19 01:08:43;;;;;;;4.50;1.40;;;;;;;5.87;100.00;99724.39;109087;1258;59366;-61
2023/12/19 01:11:31;;;;;;;4.50;1.30;;;;;;;5.86;100.00;99720.60;109031;1260;60299;-63
2023/12/19 01:14:19;;;;;;;5.20;1.40;;;;;;;5.86;100.00;99715.98;109076;1261;73130;-63
2023/12/19 01:17:06;;;;;;;4.40;1.20;;;;;;;5.87;100.00;99701.71;109117;1260;66536;-61
2023/12/19 01:19:54;;;;;;;4.90;1.40;;;;;;;5.87;100.00;99704.52;109088;1259;73857;-63
2023/12/19 01:22:45;;;;;;;5.20;1.20;;;;;;;5.88;100.00;99691.60;109045;1260;59470;-62
2023/12/19 01:25:33;;;;;;;5.00;1.60;;;;;;;5.88;100.00;99684.20;109113;1259;60436;-64
2023/12/19 01:28:21;;;;;;;5.10;1.40;;;;;;;5.88;100.00;99694.93;109132;1259;71594;-64
2023/12/19 01:31:08;;;;;;;5.00;1.30;;;;;;;5.89;100.00;99708.08;109030;1260;66996;-62
2023/12/19 01:33:57;;;;;;;4.90;1.50;;;;;;;5.90;100.00;99710.31;109053;1257;72821;-62
2023/12/19 01:36:45;;;;;;;5.00;1.60;;;;;;;5.91;100.00;99704.40;108956;1263;60448;-61
2023/12/19 01:39:44;;;;;;;4.10;1.30;;;;;;;5.91;100.00;99707.56;109101;1257;61348;-63
2023/12/19 01:42:32;;;;;;;4.90;1.50;;;;;;;5.91;100.00;99692.08;108981;1257;73099;-61
2023/12/19 01:45:27;;;;;;;4.80;1.40;;;;;;;5.91;100.00;99698.42;109035;1257;66856;-61
2023/12/19 01:48:16;;;;;;;4.30;1.40;;;;;;;5.92;100.00;99698.70;108961;1261;71372;-61
2023/12/19 01:51:04;;;;;;;4.50;1.30;;;;;;;5.94;100.00;99696.61;109061;1257;58546;-62
2023/12/19 01:53:52;;;;;;;4.90;1.20;;;;;;;5.97;100.00;99689.77;109049;1261;59992;-62
2023/12/19 01:56:40;;;;;;;5.00;1.40;;;;;;;5.99;100.00;99692.49;109128;1257;72938;-62
2023/12/19 01:59:28;;;;;;;5.20;1.70;;;;;;;6.00;100.00;99693.65;109119;1258;69221;-61
2023/12/19 02:02:17;;;;;;;4.90;1.50;;;;;;;6.01;100.00;99691.30;109097;1257;73875;-63
2023/12/19 02:05:06;;;;;;;5.20;1.70;;;;;;;6.00;100.00;99693.52;108980;1258;59568;-63
2023/12/19 02:07:54;;;;;;;5.00;1.70;;;;;;;6.02;100.00;99682.59;109106;1260;61536;-63
2023/12/19 02:10:42;;;;;;;5.90;1.90;;;;;;;6.02;100.00;99675.07;108983;1257;71799;-63
2023/12/19 02:13:30;;;;;;;5.60;1.90;;;;;;;6.00;100.00;99670.76;109004;1257;69061;-62
2023/12/19 02:16:18;;;;;;;5.20;2.00;;;;;;;5.98;100.00;99659.76;109099;1258;71455;-63
2023/12/19 02:19:06;;;;;;;7.90;2.10;;;;;;;6.03;100.00;99670.90;109098;1263;60622;-63
2023/12/19 02:21:53;;;;;;;5.50;2.10;;;;;;;6.04;100.00;99672.96;109120;1257;58957;-62
2023/12/19 02:24:42;;;;;;;7.30;2.30;;;;;;;6.05;100.00;99669.71;109134;1257;71043;-62
2023/12/19 02:27:30;;;;;;;5.80;2.10;;;;;;;6.06;100.00;99670.70;109166;1257;68971;-63
2023/12/19 02:30:18;;;;;;;6.40;2.30;;;;;;;6.06;100.00;99667.76;109091;1257;72879;-62
2023/12/19 02:33:06;;;;;;;5.50;2.40;;;;;;;6.05;100.00;99660.04;109191;1257;58832;-62
2023/12/19 02:35:53;;;;;;;5.80;2.30;;;;;;;6.05;100.00;99649.16;109133;1258;60214;-63
2023/12/19 02:38:41;;;;;;;5.70;2.00;;;;;;;6.04;100.00;99632.98;108409;1257;1002941;-66
2023/12/19 02:41:29;;;;;;;6.30;2.60;;;;;;;6.04;100.00;99611.48;109137;1257;68563;-64
2023/12/19 02:44:16;;;;;;;6.00;2.50;;;;;;;6.04;100.00;99598.61;109131;1257;73752;-61
2023/12/19 02:47:04;;;;;;;6.30;2.50;;;;;;;6.03;100.00;99598.91;109144;1260;59542;-62
2023/12/19 02:49:52;;;;;;;5.70;2.30;;;;;;;6.02;100.00;99597.70;109211;1257;59996;-63
2023/12/19 02:52:40;;;;;;;5.40;1.90;;;;;;;6.03;100.00;99593.09;109147;1257;72152;-63
2023/12/19 02:55:28;;;;;;;6.00;2.00;;;;;;;6.00;100.00;99586.95;109182;1257;66661;-63
2023/12/19 02:58:17;;;;;;;6.10;2.50;;;;;;;5.98;100.00;99576.70;109116;1257;73679;-61
2023/12/19 03:01:08;;;;;;;7.10;2.50;;;;;;;5.96;100.00;99564.45;109141;1257;59749;-61
2023/12/19 03:03:56;;;;;;;6.40;2.10;;;;;;;5.96;100.00;99577.84;109002;1257;61505;-62
2023/12/19 03:06:44;;;;;;;5.60;1.70;;;;;;;5.96;100.00;99575.52;109107;1258;73042;-61
2023/12/19 03:09:32;;;;;;;6.40;2.00;;;;;;;5.96;100.00;99570.42;109076;1257;67846;-63
2023/12/19 03:12:19;;;;;;;5.50;1.90;;;;;;;5.96;100.00;99568.66;109171;1257;72448;-62
2023/12/19 03:15:08;;;;;;;6.10;2.30;;;;;;;5.97;100.00;99565.80;109223;1257;60716;-64
2023/12/19 03:17:56;;;;;;;5.40;1.80;;;;;;;5.98;100.00;99560.84;109231;1257;60417;-63
2023/12/19 03:20:43;;;;;;;6.30;2.50;;;;;;;5.96;100.00;99565.14;109087;1257;73009;-62
2023/12/19 03:23:32;;;;;;;6.20;2.60;;;;;;;5.98;100.00;99563.48;109172;1257;67821;-63
2023/12/19 03:26:19;;;;;;;5.80;2.00;;;;;;;5.97;100.00;99559.80;109207;1257;72675;-63
2023/12/19 03:29:08;;;;;;;6.00;2.50;;;;;;;5.98;100.00;99550.98;109175;1257;59592;-63
2023/12/19 03:31:56;;;;;;;6.50;2.40;;;;;;;5.98;100.00;99544.64;109191;1257;58693;-63
2023/12/19 03:34:43;;;;;;;5.80;2.00;;;;;;;5.99;100.00;99539.30;109229;1257;73132;-61
2023/12/19 03:37:31;;;;;;;5.60;2.10;;;;;;;6.00;100.00;99538.70;109195;1257;67732;-62
2023/12/19 03:40:19;;;;;;;6.20;2.20;;;;;;;6.02;100.00;99535.05;109152;1257;72456;-61
2023/12/19 03:43:08;;;;;;;5.80;1.80;;;;;;;6.04;100.00;99533.29;109047;1257;60424;-61
2023/12/19 03:46:01;;;;;;;5.80;2.00;;;;;;;6.02;100.00;99527.30;109120;1257;61120;-61
2023/12/19 03:48:49;;;;;;;5.80;1.90;;;;;;;6.03;100.00;99523.89;109198;1257;71725;-61
2023/12/19 03:51:37;;;;;;;5.70;2.20;;;;;;;6.00;100.00;99518.45;109054;1257;67690;-61
2023/12/19 03:54:39;;;;;;;5.70;2.10;;;;;;;6.00;100.00;99513.48;109154;1257;72628;-62
2023/12/19 03:57:27;;;;;;;5.60;1.90;;;;;;;6.02;100.00;99518.15;109162;1257;59582;-61
2023/12/19 04:00:15;;;;;;;5.40;2.00;;;;;;;6.01;100.00;99516.42;109211;1257;60120;-63
2023/12/19 04:03:03;;;;;;;5.40;1.90;;;;;;;6.02;100.00;99530.60;109037;1257;70796;-62
2023/12/19 04:05:51;;;;;;;6.30;2.10;;;;;;;6.03;100.00;99548.19;109131;1257;67819;-63
2023/12/19 04:08:39;;;;;;;5.60;2.10;;;;;;;6.04;100.00;99547.61;108873;1257;72687;-64
2023/12/19 04:11:27;;;;;;;5.30;2.10;;;;;;;6.04;100.00;99540.54;109181;1257;60314;-64
2023/12/19 04:14:15;;;;;;;5.60;2.00;;;;;;;5.99;100.00;99522.56;109212;1257;60245;-63
2023/12/19 04:17:03;;;;;;;6.00;2.10;;;;;;;6.04;100.00;99529.30;109117;1257;73968;-63
2023/12/19 04:19:51;;;;;;;5.90;1.90;;;;;;;6.03;100.00;99529.83;109172;1257;66966;-62
2023/12/19 04:22:39;;;;;;;5.70;1.90;;;;;;;6.03;100.00;99519.46;109085;1257;72856;-65
2023/12/19 04:25:27;;;;;;;6.70;2.20;;;;;;;6.04;100.00;99509.92;109209;1257;58529;-64
2023/12/19 04:28:15;;;;;;;6.20;1.90;;;;;;;6.04;100.00;99511.83;109224;1257;59461;-63
2023/12/19 04:31:03;;;;;;;5.60;1.90;;;;;;;6.03;100.00;99516.45;109206;1257;70802;-63
2023/12/19 04:33:51;;;;;;;5.80;2.10;;;;;;;6.05;100.00;99509.64;109116;1257;66425;-62
2023/12/19 04:36:40;;;;;;;6.30;2.10;;;;;;;6.07;100.00;99506.86;109220;1257;73459;-65
2023/12/19 04:39:28;;;;;;;6.00;2.00;;;;;;;6.07;100.00;99510.20;109140;1258;59173;-61
2023/12/19 04:42:19;;;;;;;6.10;2.10;;;;;;;6.08;100.00;99505.20;109200;1257;59702;-60
2023/12/19 04:45:08;;;;;;;5.40;1.60;;;;;;;6.09;100.00;99491.25;109020;1257;72165;-62
2023/12/19 04:47:56;;;;;;;6.30;1.80;;;;;;;6.10;100.00;99491.71;109220;1257;68230;-62
2023/12/19 04:50:44;;;;;;;5.90;2.50;;;;;;;6.09;100.00;99485.91;109197;1257;71464;-62
2023/12/19 04:53:32;;;;;;;5.60;2.20;;;;;;;6.09;100.00;99486.09;109067;1257;58258;-64
2023/12/19 04:56:19;;;;;;;6.10;2.10;;;;;;;6.11;100.00;99489.86;109151;1257;58766;-62
2023/12/19 04:59:07;;;;;;;6.20;2.10;;;;;;;6.12;100.00;99486.23;109090;1257;73036;-62
2023/12/19 05:01:55;;;;;;;6.20;2.20;;;;;;;6.12;100.00;99489.98;109225;1257;68899;-61
2023/12/19 05:04:44;;;;;;;6.70;2.30;;;;;;;6.14;100.00;99501.62;109100;1257;71484;-62
2023/12/19 05:07:32;;;;;;;6.60;2.60;;;;;;;6.16;100.00;99500.43;109115;1257;59389;-63
2023/12/19 05:10:20;;;;;;;6.20;2.30;;;;;;;6.18;100.00;99489.92;109060;1257;60055;-62
2023/12/19 05:13:08;;;;;;;6.70;2.60;;;;;;;6.21;100.00;99487.79;109099;1259;71811;-62
2023/12/19 05:15:56;;;;;;;6.10;2.20;;;;;;;6.22;100.00;99489.30;109202;1256;68548;-63
2023/12/19 05:18:45;;;;;;;6.20;2.60;;;;;;;6.24;100.00;99488.07;109031;1257;72330;-63
2023/12/19 05:21:38;;;;;;;6.00;2.40;;;;;;;6.25;100.00;99494.52;109150;1257;59333;-64
2023/12/19 05:24:27;;;;;;;6.20;2.30;;;;;;;6.27;100.00;99504.12;108988;1257;59112;-64
2023/12/19 05:27:15;;;;;;;6.40;2.30;;;;;;;6.28;100.00;99517.80;109073;1257;74022;-64
2023/12/19 05:30:04;;;;;;;5.90;2.30;;;;;;;6.28;100.00;99516.73;109044;1257;66423;-65
2023/12/19 05:32:51;;;;;;;7.10;2.60;;;;;;;6.30;100.00;99498.98;108968;1257;72796;-63
2023/12/19 05:35:39;;;;;;;7.50;2.50;;;;;;;6.29;100.00;99489.30;109024;1257;59402;-65
2023/12/19 05:38:30;;;;;;;6.50;2.30;;;;;;;6.29;100.00;99498.13;109148;1257;60561;-64
2023/12/19 05:41:18;;;;;;;6.10;2.60;;;;;;;6.30;100.00;99504.45;109003;1257;72908;-65
2023/12/19 05:44:06;;;;;;;7.00;2.70;;;;;;;6.30;100.00;99498.42;108960;1257;66830;-63
2023/12/19 05:46:56;;;;;;;6.10;2.00;;;;;;;6.32;100.00;99503.45;108946;1257;73417;-64
2023/12/19 05:49:44;;;;;;;5.70;2.20;;;;;;;6.31;100.00;99504.02;109049;1257;60280;-64
2023/12/19 05:52:32;;;;;;;5.90;2.10;;;;;;;6.30;100.00;99512.50;108957;1257;60301;-64
2023/12/19 05:55:21;;;;;;;6.40;2.20;;;;;;;6.30;100.00;99501.42;109005;1260;72146;-65
2023/12/19 05:58:09;;;;;;;5.90;2.10;;;;;;;6.28;100.00;99491.67;109099;1257;66572;-64
2023/12/19 06:00:57;;;;;;;6.00;2.30;;;;;;;6.31;100.00;99502.10;109180;1257;72483;-67
2023/12/19 06:03:45;;;;;;;6.10;2.10;;;;;;;6.32;100.00;99505.93;109084;1257;57949;-64
2023/12/19 06:06:37;;;;;;;6.20;2.20;;;;;;;6.31;100.00;99514.58;109131;1257;60079;-67
2023/12/19 06:09:25;;;;;;;5.50;2.00;;;;;;;6.32;100.00;99514.14;109058;1257;72924;-64
2023/12/19 06:12:13;;;;;;;5.40;1.80;;;;;;;6.34;100.00;99516.13;108987;1257;67634;-65
2023/12/19 06:15:13;;;;;;;5.60;2.00;;;;;;;6.35;100.00;99516.60;109081;1257;72670;-63
2023/12/19 06:18:01;;;;;;;5.60;2.00;;;;;;;6.34;100.00;99513.85;109066;1257;59930;-62
2023/12/19 06:20:49;;;;;;;5.80;1.90;;;;;;;6.35;100.00;99511.66;108963;1257;58729;-63
2023/12/19 06:23:36;;;;;;;5.70;1.90;;;;;;;6.38;100.00;99520.59;108857;1257;73304;-63
2023/12/19 06:26:24;;;;;;;5.60;1.90;;;;;;;6.39;100.00;99513.83;109002;1257;68029;-66
2023/12/19 06:29:12;;;;;;;6.00;2.00;;;;;;;6.40;100.00;99512.52;109028;1257;73296;-64
2023/12/19 06:32:00;;;;;;;5.50;1.80;;;;;;;6.42;100.00;99509.56;108963;1257;58343;-64
2023/12/19 06:34:48;;;;;;;5.60;1.70;;;;;;;6.43;100.00;99508.27;109191;1257;59462;-64
2023/12/19 06:37:36;;;;;;;5.40;1.70;;;;;;;6.45;100.00;99507.80;109016;1256;73872;-64
2023/12/19 06:40:24;;;;;;;6.60;2.30;;;;;;;6.46;100.00;99513.21;109069;1257;67640;-64
2023/12/19 06:43:12;;;;;;;5.90;1.90;;;;;;;6.46;100.00;99486.70;109160;1256;71106;-66
2023/12/19 06:45:59;;;;;;;5.70;2.10;;;;;;;6.48;100.00;99476.04;109070;1257;58250;-62
2023/12/19 06:48:48;;;;;;;5.70;1.90;;;;;;;6.50;100.00;99489.30;109170;1257;60235;-63
2023/12/19 06:51:36;;;;;;;5.50;1.90;;;;;;;6.52;100.00;99489.36;109147;1256;72957;-64
2023/12/19 06:54:24;;;;;;;6.00;2.00;;;;;;;6.53;100.00;99478.36;109097;1257;67564;-63
2023/12/19 06:57:12;;;;;;;6.10;2.10;;;;;;;6.53;100.00;99459.52;109036;1257;73441;-65
2023/12/19 07:00:00;;;;;;;5.20;1.80;;;;;;;6.55;100.00;99456.02;109117;1257;60417;-63
2023/12/19 07:02:48;;;;;;;5.40;1.70;;;;;;;6.56;100.00;99461.05;109063;1257;59438;-62
2023/12/19 07:05:36;;;;;;;5.70;1.90;;;;;;;6.57;100.00;99476.68;109062;1257;72722;-61
2023/12/19 07:08:24;;;;;;;5.80;2.00;;;;;;;6.59;100.00;99479.00;108998;1257;67644;-67
2023/12/19 07:11:16;;;;;;;5.80;2.10;;;;;;;6.61;100.00;99478.83;108982;1257;73422;-63
2023/12/19 07:14:04;;;;;;;5.60;1.80;;;;;;;6.64;100.00;99484.27;109019;1257;58437;-64
2023/12/19 07:16:51;;;;;;;5.80;1.90;;;;;;;6.64;100.00;99480.52;108973;1257;58714;-62
2023/12/19 07:19:43;;;;;;;6.70;2.10;;;;;;;6.67;100.00;99489.53;109013;1257;74503;-64
2023/12/19 07:22:31;;;;;;;5.90;2.10;;;;;;;6.70;100.00;99482.13;108922;1257;66601;-64
2023/12/19 07:25:20;;;;;;;6.00;2.40;;;;;;;6.72;100.00;99491.64;109063;1257;73451;-67
2023/12/19 07:28:09;;;;;;;6.00;2.20;;;;;;;6.75;100.00;99495.27;108950;1257;59232;-61
2023/12/19 07:30:57;;;;;;;6.20;2.20;;;;;;;6.79;100.00;99500.52;109210;1257;61473;-64
2023/12/19 07:33:45;;;;;;;5.80;1.90;;;;;;;6.81;100.00;99491.70;109122;1257;71966;-65
2023/12/19 07:36:34;;;;;;;5.50;1.80;;;;;;;6.82;100.00;99498.84;109115;1257;67837;-65
2023/12/19 07:39:22;;;;;;;6.10;2.00;;;;;;;6.84;100.00;99508.77;109167;1257;72401;-62
2023/12/19 07:42:10;;;;;;;7.30;2.60;;;;;;;6.86;100.00;99511.08;109150;1257;59443;-63
2023/12/19 07:44:59;;;;;;;6.00;2.10;;;;;;;6.87;100.00;99509.14;109116;1257;60380;-63
2023/12/19 07:47:47;;;;;;;5.50;1.80;;;;;;;6.87;100.00;99501.38;109112;1257;70880;-62
2023/12/19 07:50:36;;;;;;;5.40;1.70;;;;;;;6.86;100.00;99499.83;109211;1257;66397;-63
2023/12/19 07:53:28;;;;;;;6.80;2.50;;;;;;;6.87;100.00;99501.15;109031;1257;72343;-65
2023/12/19 07:56:16;;;;;;;6.00;1.90;;;;;;;6.88;100.00;99504.30;109040;1257;59280;-62
2023/12/19 07:59:03;;;;;;;5.90;2.20;;;;;;;6.90;100.00;99501.46;109020;1257;58955;-64
2023/12/19 08:01:51;;;;;;;6.50;2.10;;;;;;;6.92;100.00;99504.88;108975;1257;74127;-64
2023/12/19 08:04:42;;;;;;;6.20;1.90;;;;;;;6.92;100.00;99506.42;109091;1257;67642;-65
2023/12/19 08:07:30;;;;;;;6.00;2.20;;;;;;;6.90;100.00;99506.73;109193;1257;71106;-64
2023/12/19 08:10:19;;;;;;;6.90;2.20;;;;;;;6.90;100.00;99508.39;109084;1256;57860;-63
2023/12/19 08:13:07;;;;;;;6.10;2.00;;;;;;;6.89;100.00;99510.20;109200;1257;60387;-64
2023/12/19 08:15:55;;;;;;;6.30;1.90;;;;;;;6.87;100.00;99497.66;109096;1257;72657;-66
2023/12/19 08:19:02;;;;;;;6.20;2.30;;;;;;;6.86;100.00;99489.08;108991;1257;67880;-64
2023/12/19 08:21:52;;;;;;;6.20;1.90;;;;;;;6.87;100.00;99482.16;109002;1256;72606;-64
2023/12/19 08:24:40;;;;;;;6.60;1.80;;;;;;;6.85;100.00;99482.98;108858;1257;58120;-65
2023/12/19 08:27:34;;;;;;;5.50;1.80;;;;;;;6.80;100.00;99487.34;109059;1257;61087;-64
2023/12/19 08:30:25;;;;;;;7.00;2.30;;;;;;;6.77;100.00;99486.02;109051;1257;72103;-67
2023/12/19 08:33:14;;;;;;;6.10;1.70;;;;;;;6.73;100.00;99489.30;109071;1257;66628;-65
2023/12/19 08:36:02;;;;;;;5.60;1.80;;;;;;;6.71;100.00;99494.70;108996;1257;72629;-64
2023/12/19 08:38:50;;;;;;;6.50;2.10;;;;;;;6.68;100.00;99474.64;109070;1257;59326;-63
2023/12/19 08:41:37;;;;;;;6.40;1.90;;;;;;;6.70;100.00;99484.74;109086;1257;60424;-63
2023/12/19 08:44:28;;;;;;;6.20;1.90;;;;;;;6.71;100.00;99481.69;109103;1257;74066;-63
2023/12/19 08:47:15;;;;;;;5.50;1.80;;;;;;;6.72;100.00;99483.53;108914;1257;69087;-63
2023/12/19 08:50:07;;;;;;;5.80;1.80;;;;;;;6.73;100.00;99482.38;109055;1257;72635;-63
2023/12/19 08:52:57;;;;;;;5.70;1.60;;;;;;;6.68;100.00;99487.50;109054;1256;58369;-65
2023/12/19 08:55:47;;;;;;;5.80;1.50;;;;;;;6.62;100.00;99476.98;109145;1257;61355;-63
2023/12/19 08:58:35;;;;;;;5.80;1.70;;;;;;;6.65;100.00;99485.06;109070;1257;73751;-63
2023/12/19 09:01:23;;;;;;;7.10;2.20;;;;;;;6.66;100.00;99496.10;109189;1257;66401;-63
2023/12/19 09:04:11;;;;;;;5.50;1.60;;;;;;;6.68;100.00;99488.38;109217;1257;72374;-65
2023/12/19 09:06:59;;;;;;;6.30;2.00;;;;;;;6.70;100.00;99474.86;109132;1257;57358;-65
2023/12/19 09:09:48;;;;;;;7.50;2.30;;;;;;;6.74;100.00;99486.91;109059;1257;59235;-66
2023/12/19 09:12:36;;;;;;;6.20;2.00;;;;;;;6.76;100.00;99497.14;109022;1257;73167;-62
2023/12/19 09:15:24;;;;;;;6.50;2.40;;;;;;;6.79;100.00;99504.55;109111;1257;68018;-63
2023/12/19 09:18:12;;;;;;;6.20;2.20;;;;;;;6.85;100.00;99509.75;109076;1257;72321;-63
2023/12/19 09:21:00;;;;;;;7.60;3.00;;;;;;;6.91;100.00;99508.85;108923;1257;57968;-64
2023/12/19 09:23:48;;;;;;;9.60;2.20;;;;;;;6.94;100.00;99513.86;109024;1257;59123;-64
2023/12/19 09:26:39;;;;;;;6.80;2.20;;;;;;;6.98;100.00;99506.21;109047;1257;71613;-66
2023/12/19 09:29:27;;;;;;;6.20;2.20;;;;;;;7.02;100.00;99507.88;109112;1257;66932;-66
2023/12/19 09:32:16;;;;;;;6.10;2.30;;;;;;;7.07;100.00;99501.13;109033;1257;71618;-66
2023/12/19 09:35:06;;;;;;;6.10;2.20;;;;;;;7.12;100.00;99500.46;109028;1257;59911;-64
2023/12/19 09:37:55;;;;;;;6.40;2.30;;;;;;;7.18;100.00;99492.27;109022;1257;60306;-63
2023/12/19 09:40:43;;;;;;;6.20;2.30;;;;;;;7.21;100.00;99499.65;109050;1256;73153;-64
2023/12/19 09:43:33;;;;;;;5.90;2.10;;;;;;;7.23;100.00;99476.56;109040;1257;68483;-68
2023/12/19 09:46:23;;;;;;;6.20;2.00;;;;;;;7.27;100.00;99495.88;108974;1256;73362;-65
2023/12/19 09:49:12;;;;;;;7.20;2.50;;;;;;;7.28;100.00;99480.00;108988;1257;59298;-64
2023/12/19 09:52:02;;;;;;;6.60;1.80;;;;;;;7.33;100.00;99467.88;109047;1256;58746;-64
2023/12/19 09:54:51;;;;;;;7.00;2.40;;;;;;;7.36;100.00;99462.03;108886;1256;72803;-65
2023/12/19 09:57:40;;;;;;;7.80;2.40;;;;;;;7.40;100.00;99460.28;109043;1255;66422;-63
2023/12/19 10:00:32;;;;;;;5.90;2.10;;;;;;;7.45;100.00;99461.53;109156;1257;70548;-64
2023/12/19 10:03:20;;;;;;;5.90;2.30;;;;;;;7.48;100.00;99460.89;109190;1256;58237;-65
2023/12/19 10:06:09;;;;;;;6.50;2.20;;;;;;;7.48;100.00;99449.48;109068;1257;60333;-64
2023/12/19 10:08:57;;;;;;;5.90;2.10;;;;;;;7.51;100.00;99437.09;109211;1256;73739;-63
2023/12/19 10:11:45;;;;;;;7.60;2.80;;;;;;;7.54;100.00;99426.64;109262;1257;67908;-64
2023/12/19 10:14:33;;;;;;;6.20;2.40;;;;;;;7.55;100.00;99416.15;109182;1256;72700;-65
2023/12/19 10:17:22;;;;;;;5.90;2.00;;;;;;;7.53;100.00;99407.25;109078;1256;59271;-62
2023/12/19 10:20:11;;;;;;;5.90;1.80;;;;;;;7.53;100.00;99409.73;109217;1257;60275;-64
2023/12/19 10:23:05;;;;;;;7.20;2.80;;;;;;;7.54;100.00;99421.87;108857;1257;73785;-63
2023/12/19 10:25:53;;;;;;;6.70;2.20;;;;;;;7.54;100.00;99433.34;109014;1257;67926;-67
2023/12/19 10:28:42;;;;;;;5.90;1.80;;;;;;;7.54;100.00;99419.52;109070;1257;72616;-63
2023/12/19 10:31:30;;;;;;;6.70;2.20;;;;;;;7.54;100.00;99414.77;109098;1257;58342;-63
2023/12/19 10:34:18;;;;;;;6.10;2.10;;;;;;;7.54;100.00;99418.28;109073;1257;60246;-64
2023/12/19 10:37:17;;;;;;;6.00;2.30;;;;;;;7.55;100.00;99421.96;109158;1257;71791;-64
2023/12/19 10:40:10;;;;;;;8.00;2.80;;;;;;;7.55;100.00;99418.29;109212;1255;67615;-64
2023/12/19 10:42:59;;;;;;;8.00;3.20;;;;;;;7.58;100.00;99419.45;109092;1257;72604;-63
2023/12/19 10:45:48;;;;;;;7.90;2.80;;;;;;;7.60;100.00;99421.02;109107;1256;59447;-65
2023/12/19 10:48:35;;;;;;;7.00;2.80;;;;;;;7.60;100.00;99428.82;109003;1257;61543;-64
2023/12/19 10:51:41;;;;;;;7.40;2.70;;;;;;;7.59;100.00;99421.96;109210;1257;72789;-64
2023/12/19 10:54:32;;;;;;;9.60;3.10;;;;;;;7.60;100.00;99411.89;109182;1256;68906;-67
2023/12/19 10:57:23;;;;;;;9.30;3.70;;;;;;;7.56;100.00;99406.16;109081;1256;70776;-63
2023/12/19 11:00:21;;;;;;;8.60;3.30;;;;;;;7.50;100.00;99397.39;109075;1256;58668;-64
2023/12/19 11:03:17;;;;;;;8.50;3.40;;;;;;;7.47;100.00;99383.14;108962;1257;60582;-65
2023/12/19 11:06:09;;;;;;;9.30;3.80;;;;;;;7.46;100.00;99379.72;109092;1256;73919;-64
2023/12/19 11:09:05;;;;;;;9.80;4.30;;;;;;;7.45;100.00;99378.90;109107;1257;68702;-65
2023/12/19 11:11:53;;;;;;;9.30;4.20;;;;;;;7.46;100.00;99373.88;108995;1255;73172;-63
2023/12/19 11:14:41;;;;;;;8.50;3.90;;;;;;;7.48;100.00;99376.20;109192;1257;59601;-64
2023/12/19 11:17:54;;;;;;;8.00;3.60;;;;;;;7.48;100.00;99364.19;109165;1257;60276;-68
2023/12/19 11:20:52;;;;;;;7.70;3.50;;;;;;;7.51;100.00;99369.40;109014;1257;71836;-67
2023/12/19 11:24:07;;;;;;;7.70;2.90;;;;;;;7.55;100.00;99368.30;109118;1257;67583;-62
2023/12/19 11:27:03;;;;;;;7.60;3.00;;;;;;;7.56;100.00;99365.03;109184;1257;72871;-65
2023/12/19 11:29:53;;;;;;;8.70;3.10;;;;;;;7.55;100.00;99358.20;109100;1257;58305;-64
2023/12/19 11:32:41;;;;;;;8.60;3.10;;;;;;;7.55;100.00;99349.94;108971;1258;61086;-64
2023/12/19 11:35:31;;;;;;;7.60;2.80;;;;;;;7.53;100.00;99350.75;109007;1257;73884;-65
2023/12/19 11:38:25;;;;;;;7.70;3.00;;;;;;;7.52;100.00;99345.52;109127;1257;67627;-62
2023/12/19 11:41:37;;;;;;;6.30;2.50;;;;;;;7.49;100.00;99333.23;108999;1257;73909;-63
2023/12/19 11:44:37;;;;;;;7.90;2.00;;;;;;;7.48;100.00;99332.61;109127;1257;59266;-65
2023/12/19 11:47:28;;;;;;;6.80;2.30;;;;;;;7.45;100.00;99344.66;109215;1257;60123;-64
2023/12/19 11:50:45;;;;;;;8.20;2.50;;;;;;;7.42;100.00;99349.70;108990;1257;72801;-62
2023/12/19 11:53:38;;;;;;;6.50;2.70;;;;;;;7.41;100.00;99342.88;109224;1257;67587;-63
2023/12/19 11:56:26;;;;;;;6.40;2.40;;;;;;;7.39;100.00;99338.09;109156;1257;70307;-63
2023/12/19 11:59:15;;;;;;;8.30;2.90;;;;;;;7.40;100.00;99342.06;108981;1257;59247;-65
2023/12/19 12:02:03;;;;;;;8.40;2.70;;;;;;;7.40;100.00;99330.41;109008;1257;60391;-64
2023/12/19 12:05:08;;;;;;;8.20;3.20;;;;;;;7.41;100.00;99327.34;109098;1257;71097;-63
2023/12/19 12:07:57;;;;;;;9.40;2.90;;;;;;;7.44;100.00;99322.31;109016;1257;68624;-62
2023/12/19 12:11:02;;;;;;;7.00;2.70;;;;;;;7.46;100.00;99312.08;109172;1257;72701;-65
2023/12/19 12:14:03;;;;;;;8.10;3.30;;;;;;;7.51;100.00;99312.62;109056;1257;58146;-63
2023/12/19 12:16:52;;;;;;;7.20;3.30;;;;;;;7.53;100.00;99319.14;109191;1257;58992;-65
2023/12/19 12:19:40;;;;;;;6.50;2.30;;;;;;;7.53;100.00;99311.77;109131;1257;74126;-62
2023/12/19 12:22:28;;;;;;;7.70;2.30;;;;;;;7.51;100.00;99307.83;109085;1257;67409;-64
2023/12/19 12:25:18;;;;;;;8.10;2.60;;;;;;;7.50;100.00;99311.42;109065;1258;72367;-65
2023/12/19 12:28:14;;;;;;;6.40;2.30;;;;;;;7.49;100.00;99312.95;109115;1257;59319;-64
2023/12/19 12:31:03;;;;;;;6.90;2.50;;;;;;;7.46;100.00;99307.52;109071;1257;58677;-63
2023/12/19 12:33:51;;;;;;;7.10;2.30;;;;;;;7.44;100.00;99308.93;109124;1257;71661;-63
2023/12/19 12:36:39;;;;;;;6.80;2.40;;;;;;;7.44;100.00;99301.01;109112;1257;67635;-64
2023/12/19 12:39:27;;;;;;;6.20;2.20;;;;;;;7.42;100.00;99288.79;109116;1257;73056;-63
2023/12/19 12:42:22;;;;;;;8.90;3.10;;;;;;;7.42;100.00;99292.87;109097;1257;58019;-61
2023/12/19 12:45:15;;;;;;;8.10;2.80;;;;;;;7.41;100.00;99283.23;109045;1257;60403;-65
2023/12/19 12:48:13;;;;;;;7.40;2.40;;;;;;;7.37;100.00;99276.45;109021;1257;73950;-62
2023/12/19 12:51:04;;;;;;;7.60;2.70;;;;;;;7.37;100.00;99270.08;109145;1257;67944;-65
2023/12/19 12:54:00;;;;;;;6.70;2.40;;;;;;;7.38;100.00;99265.13;109123;1257;72510;-62
2023/12/19 12:56:49;;;;;;;6.00;2.10;;;;;;;7.37;100.00;99270.97;109098;1257;59391;-63
2023/12/19 12:59:38;;;;;;;6.60;2.20;;;;;;;7.36;100.00;99266.85;108903;1257;60078;-63
2023/12/19 13:02:26;;;;;;;7.80;2.40;;;;;;;7.32;100.00;99262.90;109101;1257;72983;-62
2023/12/19 13:05:15;;;;;;;6.90;3.00;;;;;;;7.29;100.00;99266.48;109180;1257;66614;-65
2023/12/19 13:08:03;;;;;;;6.90;3.10;;;;;;;7.27;100.00;99273.11;109076;1256;72448;-65